Chipley, Florida
Current Conditions -  °F | °C
As of 6:53 AM on Friday 24 Oct 2014 (Local Time) from KMAI Reporting Station
Clear Clear  
Wind Chill: 50°   Ceiling: Unl
Heat Index: 50°   Visibility: 10mi
Dew Point: 49°   Wind: 0mph
Humidity: 96%   Direction: NA
Pressure: 30.05"   Gusts: NA
Location:  30.78°N, 85.54°W
Report Text: KMAI 241153Z AUTO 00000KT 10SM CLR 10/09 A3005 RMK AO2 SLP175 T01000094 10122 20100 51011 $
Loading
Personal Weather Stations






























Interactive Weather Map
Tropical Storm Tracking
New forecast layout! Learn more

10-Day Weather Forecast

Advertisements
Track Severe Weather on mobile